Time;durP1;ratioP1;P1;durP2;ratioP2;P2;SDS_P1;SDS_P2;PMS_P1;PMS_P2;Temp;Humidity;BMP_temperature;BMP_pressure;BME280_temperature;BME280_humidity;BME280_pressure;Samples;Min_cycle;Max_cycle;Signal;HPM_P1;HPM_P2
2022/10/26 00:01:16;;;;;;;49.90;34.80;;;;;;;9.63;84.98;99146.23;87060;1294;22436;-77
2022/10/26 00:03:18;;;;;;;54.10;32.80;;;;;;;9.63;84.97;99146.11;87178;1297;23839;-77
2022/10/26 00:05:22;;;;;;;55.10;35.40;;;;;;;9.63;85.22;99156.45;87200;1295;25285;-79
2022/10/26 00:07:24;;;;;;;56.00;36.90;;;;;;;9.63;85.39;99154.88;87276;1284;23332;-77
2022/10/26 00:09:25;;;;;;;52.50;36.80;;;;;;;9.64;85.15;99155.70;87324;1298;22586;-77
2022/10/26 00:11:27;;;;;;;56.80;35.90;;;;;;;9.63;85.21;99155.54;87190;1291;23805;-77
2022/10/26 00:13:29;;;;;;;53.90;37.50;;;;;;;9.61;85.16;99157.39;87238;1284;22700;-77
2022/10/26 00:15:31;;;;;;;56.40;36.30;;;;;;;9.60;85.23;99161.30;87100;1298;22473;-77
2022/10/26 00:17:32;;;;;;;52.00;37.30;;;;;;;9.59;85.26;99166.80;87196;1299;24246;-77
2022/10/26 00:19:34;;;;;;;54.40;37.40;;;;;;;9.57;85.07;99169.31;87102;1284;22513;-78
2022/10/26 00:21:36;;;;;;;59.70;38.20;;;;;;;9.53;85.24;99162.47;87183;1292;22555;-77
2022/10/26 00:23:38;;;;;;;59.60;39.80;;;;;;;9.54;85.00;99168.55;87162;1294;22639;-78
2022/10/26 00:25:39;;;;;;;60.80;41.00;;;;;;;9.51;85.25;99166.23;87172;1301;23210;-77
2022/10/26 00:27:41;;;;;;;79.10;40.10;;;;;;;9.52;85.24;99169.70;87107;1294;25274;-77
2022/10/26 00:29:43;;;;;;;59.50;39.70;;;;;;;9.51;85.18;99170.80;87096;1295;22834;-78
2022/10/26 00:31:44;;;;;;;60.60;39.90;;;;;;;9.49;85.24;99169.11;87083;1287;25939;-78
2022/10/26 00:33:46;;;;;;;62.10;40.70;;;;;;;9.48;85.36;99163.01;87214;1293;23946;-77
2022/10/26 00:35:53;;;;;;;57.40;40.80;;;;;;;9.47;85.27;99163.24;87217;1294;22228;-78
2022/10/26 00:37:55;;;;;;;67.10;38.10;;;;;;;9.46;85.13;99158.89;87138;1290;22525;-78
2022/10/26 00:39:56;;;;;;;50.90;36.10;;;;;;;9.43;85.33;99161.29;87180;1294;24365;-78
2022/10/26 00:41:58;;;;;;;58.50;37.00;;;;;;;9.44;85.32;99162.14;87089;1313;22797;-77
2022/10/26 00:44:00;;;;;;;56.20;36.30;;;;;;;9.44;85.27;99166.36;87194;1295;22466;-77
2022/10/26 00:46:05;;;;;;;63.70;35.40;;;;;;;9.44;85.35;99164.94;87197;1310;22591;-77
2022/10/26 00:48:22;;;;;;;53.10;35.20;;;;;;;9.45;85.56;99167.36;87161;1294;22443;-77
2022/10/26 00:50:28;;;;;;;57.40;35.00;;;;;;;9.45;85.41;99164.91;87274;1292;22493;-77
2022/10/26 00:52:33;;;;;;;56.70;34.90;;;;;;;9.45;85.38;99164.21;87100;1296;24229;-78
2022/10/26 00:54:34;;;;;;;55.70;35.40;;;;;;;9.45;85.42;99162.45;87149;1301;22759;-77
2022/10/26 00:56:37;;;;;;;70.90;36.60;;;;;;;9.45;85.33;99163.33;87143;1288;24263;-77
2022/10/26 00:58:39;;;;;;;56.70;35.20;;;;;;;9.45;85.51;99162.98;86999;1289;22468;-77
2022/10/26 01:00:42;;;;;;;54.00;35.70;;;;;;;9.45;85.51;99167.52;87213;1310;22469;-76
2022/10/26 01:02:47;;;;;;;58.70;34.00;;;;;;;9.46;85.42;99162.95;87237;1287;22840;-77
2022/10/26 01:04:49;;;;;;;53.00;35.40;;;;;;;9.47;85.66;99168.14;87131;1296;22499;-77
2022/10/26 01:06:51;;;;;;;55.70;33.90;;;;;;;9.48;85.44;99166.52;87191;1310;23509;-77
2022/10/26 01:08:53;;;;;;;50.80;33.10;;;;;;;9.48;85.50;99170.88;87194;1303;22535;-77
2022/10/26 01:10:57;;;;;;;54.70;32.90;;;;;;;9.49;85.35;99170.70;87247;1294;25227;-77
2022/10/26 01:12:59;;;;;;;58.70;34.50;;;;;;;9.50;85.40;99168.17;87252;1292;22426;-78
2022/10/26 01:15:01;;;;;;;55.00;35.60;;;;;;;9.51;85.48;99170.59;87172;1294;22486;-77
2022/10/26 01:17:27;;;;;;;54.10;33.40;;;;;;;9.53;85.58;99171.58;87196;1294;22953;-77
2022/10/26 01:20:06;;;;;;;53.30;34.40;;;;;;;9.55;85.69;99168.16;87165;1295;22454;-76
2022/10/26 01:22:13;;;;;;;57.80;34.80;;;;;;;9.58;85.58;99168.07;87161;1290;22777;-77
2022/10/26 01:24:38;;;;;;;54.10;35.30;;;;;;;9.60;85.48;99167.09;87255;1289;22491;-79
2022/10/26 01:26:40;;;;;;;62.80;36.30;;;;;;;9.62;85.67;99166.30;87190;1287;22470;-78
2022/10/26 01:28:41;;;;;;;55.80;36.50;;;;;;;9.64;85.49;99164.83;87268;1292;22493;-77
2022/10/26 01:30:47;;;;;;;56.30;36.30;;;;;;;9.65;85.38;99163.20;87229;1290;22741;-77
2022/10/26 01:33:07;;;;;;;61.00;37.00;;;;;;;9.66;85.60;99158.61;87149;1281;24337;-77
2022/10/26 01:35:19;;;;;;;56.10;36.30;;;;;;;9.67;85.61;99157.00;87280;1287;25384;-77
2022/10/26 01:37:29;;;;;;;53.20;36.10;;;;;;;9.67;85.66;99158.87;87031;1293;23659;-77
2022/10/26 01:39:40;;;;;;;61.80;37.00;;;;;;;9.67;85.39;99160.45;87228;1294;22550;-77
2022/10/26 01:41:49;;;;;;;58.00;38.20;;;;;;;9.67;85.51;99163.48;87272;1284;22505;-77
2022/10/26 01:44:40;;;;;;;65.50;38.30;;;;;;;9.66;85.54;99166.52;87285;1285;22579;-78
2022/10/26 01:46:45;;;;;;;58.20;36.90;;;;;;;9.64;85.47;99165.35;87186;1286;24765;-78
2022/10/26 01:48:51;;;;;;;51.70;35.90;;;;;;;9.61;85.54;99162.82;87109;1298;22575;-76
2022/10/26 01:50:55;;;;;;;58.90;36.80;;;;;;;9.59;85.39;99159.75;87175;1295;22582;-77
2022/10/26 01:52:58;;;;;;;54.10;37.10;;;;;;;9.57;85.45;99162.14;87282;1295;22539;-77
2022/10/26 01:55:01;;;;;;;55.70;36.10;;;;;;;9.56;85.37;99159.36;87063;1296;22909;-77
2022/10/26 01:57:08;;;;;;;60.30;38.00;;;;;;;9.54;85.43;99161.88;87178;1304;22568;-77
2022/10/26 01:59:29;;;;;;;58.10;38.10;;;;;;;9.53;85.58;99161.40;87142;1288;22612;-77
2022/10/26 02:01:52;;;;;;;51.40;34.70;;;;;;;9.52;85.57;99158.64;87118;1310;22492;-77
2022/10/26 02:04:26;;;;;;;64.20;38.50;;;;;;;9.51;85.53;99158.51;87176;1289;22443;-77
2022/10/26 02:06:40;;;;;;;55.60;35.10;;;;;;;9.50;85.47;99157.86;87161;1296;22413;-77
2022/10/26 02:09:07;;;;;;;55.70;34.50;;;;;;;9.47;85.49;99156.20;87141;1310;24293;-77
2022/10/26 02:11:24;;;;;;;59.70;36.50;;;;;;;9.46;85.41;99154.35;87176;1286;22707;-77
2022/10/26 02:13:37;;;;;;;57.90;36.50;;;;;;;9.44;85.46;99155.11;87171;1310;22495;-77
2022/10/26 02:15:51;;;;;;;49.90;34.10;;;;;;;9.43;85.63;99156.40;87234;1295;25406;-77
2022/10/26 02:18:08;;;;;;;48.50;32.40;;;;;;;9.40;85.46;99157.91;87121;1295;22510;-79
2022/10/26 02:20:20;;;;;;;46.60;33.60;;;;;;;9.37;85.52;99158.70;87151;1303;22499;-77
2022/10/26 02:22:37;;;;;;;55.70;32.90;;;;;;;9.34;85.43;99161.64;87131;1286;22970;-77
2022/10/26 02:24:40;;;;;;;50.40;31.50;;;;;;;9.31;85.34;99166.66;87099;1291;22512;-77
2022/10/26 02:26:47;;;;;;;49.20;32.90;;;;;;;9.27;85.41;99163.67;87128;1309;22560;-77
2022/10/26 02:28:54;;;;;;;48.40;31.60;;;;;;;9.25;85.27;99160.96;87319;1285;24257;-77
2022/10/26 02:30:59;;;;;;;45.10;31.10;;;;;;;9.23;85.45;99162.45;87149;1313;22538;-76
2022/10/26 02:33:04;;;;;;;53.80;33.00;;;;;;;9.20;85.39;99162.72;87136;1282;22488;-77
2022/10/26 02:35:06;;;;;;;48.80;32.40;;;;;;;9.17;85.44;99164.60;87118;1289;22534;-77
2022/10/26 02:37:08;;;;;;;50.10;30.90;;;;;;;9.14;85.03;99169.29;87246;1286;22504;-77
2022/10/26 02:39:14;;;;;;;52.70;32.20;;;;;;;9.11;85.34;99166.08;87118;1295;22634;-78
2022/10/26 02:41:18;;;;;;;48.60;31.00;;;;;;;9.10;85.27;99167.36;87247;1310;24267;-77
2022/10/26 02:43:22;;;;;;;42.70;30.10;;;;;;;9.08;85.33;99165.30;87012;1288;22469;-77
2022/10/26 02:45:30;;;;;;;48.80;31.70;;;;;;;9.06;85.22;99167.13;87021;1293;22474;-77
2022/10/26 02:47:33;;;;;;;41.90;30.00;;;;;;;9.02;85.39;99168.84;87129;1281;22514;-77
2022/10/26 02:49:34;;;;;;;52.40;32.30;;;;;;;9.00;85.50;99164.39;87176;1295;24288;-76
2022/10/26 02:51:44;;;;;;;46.20;33.70;;;;;;;8.96;85.31;99159.81;86984;1287;22535;-77
2022/10/26 02:53:57;;;;;;;56.00;31.20;;;;;;;8.96;85.25;99165.39;87112;1295;22490;-77
2022/10/26 02:56:06;;;;;;;43.00;29.80;;;;;;;8.92;85.41;99163.30;87164;1295;22502;-77
2022/10/26 02:58:15;;;;;;;41.60;28.90;;;;;;;8.87;85.29;99166.61;87075;1289;22431;-77
2022/10/26 03:00:18;;;;;;;48.30;28.40;;;;;;;8.83;85.14;99168.00;87090;1285;24371;-77
2022/10/26 03:02:21;;;;;;;43.10;27.90;;;;;;;8.79;85.20;99173.24;87196;1295;22525;-78
2022/10/26 03:04:33;;;;;;;43.00;27.60;;;;;;;8.75;85.41;99177.27;86991;1287;22641;-77
2022/10/26 03:06:35;;;;;;;46.00;26.80;;;;;;;8.71;85.18;99181.61;87169;1289;22429;-77
2022/10/26 03:08:37;;;;;;;46.30;26.00;;;;;;;8.67;85.29;99177.02;87281;1291;22809;-77
2022/10/26 03:10:43;;;;;;;44.00;26.20;;;;;;;8.63;85.17;99177.15;87179;1292;24270;-77
2022/10/26 03:12:45;;;;;;;47.40;25.30;;;;;;;8.60;85.40;99180.42;87241;1295;22489;-77
2022/10/26 03:14:48;;;;;;;48.30;25.90;;;;;;;8.57;85.39;99180.89;87098;1295;23745;-77
2022/10/26 03:16:50;;;;;;;46.00;27.40;;;;;;;8.55;85.41;99184.81;87202;1289;22598;-77
2022/10/26 03:18:51;;;;;;;38.00;24.70;;;;;;;8.54;85.39;99184.16;87046;1294;25752;-77
2022/10/26 03:20:53;;;;;;;33.50;22.50;;;;;;;8.52;85.34;99185.98;87071;1287;25292;-77
2022/10/26 03:22:55;;;;;;;44.50;26.10;;;;;;;8.47;85.09;99187.02;87169;1295;24457;-77
2022/10/26 03:24:57;;;;;;;47.20;27.60;;;;;;;8.44;85.04;99186.25;87160;1289;22542;-77
2022/10/26 03:27:00;;;;;;;42.00;24.50;;;;;;;8.40;85.25;99191.79;87138;1293;22504;-76
2022/10/26 03:29:02;;;;;;;34.30;24.40;;;;;;;8.36;85.27;99194.58;87227;1291;24595;-76
2022/10/26 03:31:04;;;;;;;33.70;22.50;;;;;;;8.29;85.17;99195.15;87230;1296;22608;-77
2022/10/26 03:33:05;;;;;;;36.40;23.70;;;;;;;8.24;84.97;99199.18;87192;1285;23064;-77
2022/10/26 03:35:07;;;;;;;32.50;23.90;;;;;;;8.19;85.15;99200.95;87101;1287;24351;-78
2022/10/26 03:37:09;;;;;;;40.70;24.10;;;;;;;8.14;85.17;99199.02;87051;1304;22658;-78
2022/10/26 03:39:10;;;;;;;34.40;24.30;;;;;;;8.12;85.15;99199.79;87044;1296;22523;-77
2022/10/26 03:41:12;;;;;;;32.60;23.50;;;;;;;8.11;85.56;99201.59;87137;1294;22903;-77
2022/10/26 03:43:14;;;;;;;45.00;24.20;;;;;;;8.07;85.22;99200.28;87094;1287;25264;-77
2022/10/26 03:45:15;;;;;;;47.20;25.90;;;;;;;8.05;85.04;99200.04;87151;1300;22475;-78
2022/10/26 03:47:17;;;;;;;38.70;24.70;;;;;;;8.04;85.38;99202.52;87170;1309;23939;-75
2022/10/26 03:49:18;;;;;;;42.10;26.40;;;;;;;8.01;85.42;99200.32;86809;1295;22486;-75
2022/10/26 03:51:22;;;;;;;42.20;27.80;;;;;;;7.98;85.12;99205.31;86840;1295;22509;-73
2022/10/26 03:53:25;;;;;;;62.80;29.90;;;;;;;7.98;85.06;99205.34;86831;1295;22487;-75
2022/10/26 03:55:27;;;;;;;50.00;30.50;;;;;;;7.98;85.54;99208.13;86781;1310;22627;-74
2022/10/26 03:57:28;;;;;;;46.60;30.60;;;;;;;7.97;85.32;99207.09;86923;1285;24301;-74
2022/10/26 03:59:30;;;;;;;48.30;30.20;;;;;;;7.97;85.38;99209.36;86890;1278;22522;-74
2022/10/26 04:01:32;;;;;;;45.80;28.80;;;;;;;7.98;85.29;99208.48;86874;1281;22526;-75
2022/10/26 04:03:34;;;;;;;46.20;29.40;;;;;;;7.97;85.29;99203.60;86788;1287;22509;-74
2022/10/26 04:05:35;;;;;;;54.60;29.90;;;;;;;7.97;85.72;99204.30;86782;1309;22771;-75
2022/10/26 04:07:37;;;;;;;46.00;31.00;;;;;;;7.96;85.42;99204.33;86924;1294;22507;-76
2022/10/26 04:09:38;;;;;;;47.20;30.00;;;;;;;7.97;85.36;99204.31;86604;1289;22706;-74
2022/10/26 04:11:40;;;;;;;43.80;27.60;;;;;;;7.96;85.64;99205.21;86825;1295;26502;-74
2022/10/26 04:13:42;;;;;;;45.10;27.70;;;;;;;7.94;85.32;99206.84;86865;1295;22490;-74
2022/10/26 04:15:43;;;;;;;45.20;29.80;;;;;;;7.93;85.44;99202.17;86631;1304;22500;-73
2022/10/26 04:17:45;;;;;;;41.70;27.90;;;;;;;7.92;85.53;99204.50;86829;1278;22703;-74
2022/10/26 04:19:47;;;;;;;44.50;30.00;;;;;;;7.90;85.60;99204.38;86858;1288;24234;-75
2022/10/26 04:21:52;;;;;;;53.90;29.20;;;;;;;7.89;85.73;99201.98;86827;1284;22567;-75
2022/10/26 04:23:53;;;;;;;44.80;29.70;;;;;;;7.86;85.30;99202.60;86732;1288;22497;-75
2022/10/26 04:25:55;;;;;;;45.30;30.30;;;;;;;7.85;85.38;99206.14;86745;1287;22517;-75
2022/10/26 04:27:56;;;;;;;43.70;31.10;;;;;;;7.84;85.34;99207.73;86757;1281;22690;-75
2022/10/26 04:29:58;;;;;;;44.80;30.30;;;;;;;7.82;85.14;99206.55;86566;1288;22442;-75
2022/10/26 04:32:00;;;;;;;47.60;31.20;;;;;;;7.79;85.24;99203.16;86671;1298;22484;-75
2022/10/26 04:34:01;;;;;;;45.60;28.80;;;;;;;7.78;85.29;99202.67;86834;1289;23835;-76
2022/10/26 04:36:03;;;;;;;45.00;28.50;;;;;;;7.76;85.15;99200.63;86847;1287;23516;-73
2022/10/26 04:38:06;;;;;;;43.10;28.80;;;;;;;7.74;85.29;99202.80;86832;1285;23312;-73
2022/10/26 04:40:08;;;;;;;44.40;27.20;;;;;;;7.73;85.39;99198.83;86985;1310;22513;-75
2022/10/26 04:42:10;;;;;;;46.40;27.80;;;;;;;7.72;85.34;99200.44;86731;1287;22440;-76
2022/10/26 04:44:11;;;;;;;44.10;26.90;;;;;;;7.70;85.41;99196.98;86707;1298;22614;-73
2022/10/26 04:46:13;;;;;;;40.80;26.70;;;;;;;7.68;85.37;99196.88;86989;1278;22484;-74
2022/10/26 04:48:15;;;;;;;37.60;26.80;;;;;;;7.67;85.55;99201.95;86902;1286;24633;-75
2022/10/26 04:50:17;;;;;;;42.30;24.90;;;;;;;7.64;85.32;99201.35;86889;1293;22659;-75
2022/10/26 04:52:19;;;;;;;38.70;24.70;;;;;;;7.60;85.25;99198.88;86867;1288;24387;-74
2022/10/26 04:54:20;;;;;;;34.70;24.40;;;;;;;7.53;85.08;99202.77;86721;1304;24562;-74
2022/10/26 04:56:22;;;;;;;33.60;24.80;;;;;;;7.49;85.13;99199.75;86912;1278;22416;-74
2022/10/26 04:58:24;;;;;;;33.90;24.90;;;;;;;7.48;85.35;99201.55;86787;1295;22724;-75
2022/10/26 05:00:26;;;;;;;33.70;22.40;;;;;;;7.46;85.20;99199.86;86705;1290;22555;-76
2022/10/26 05:02:28;;;;;;;37.00;24.00;;;;;;;7.39;85.19;99203.06;86878;1285;23134;-75
2022/10/26 05:04:30;;;;;;;34.40;23.40;;;;;;;7.32;84.96;99203.27;86889;1287;22470;-76
2022/10/26 05:06:32;;;;;;;36.80;24.70;;;;;;;7.25;85.24;99202.79;86944;1292;22480;-75
2022/10/26 05:08:33;;;;;;;42.30;24.40;;;;;;;7.21;85.11;99207.27;86823;1295;24281;-74
2022/10/26 05:10:35;;;;;;;40.70;26.60;;;;;;;7.18;85.08;99208.94;86767;1295;22537;-74
2022/10/26 05:12:37;;;;;;;38.10;24.00;;;;;;;7.15;85.20;99212.50;86906;1295;23063;-75
2022/10/26 05:14:39;;;;;;;38.10;24.00;;;;;;;7.16;85.54;99210.23;86872;1281;22495;-75
2022/10/26 05:16:40;;;;;;;40.30;25.30;;;;;;;7.13;85.34;99213.27;86764;1288;25551;-74
2022/10/26 05:18:42;;;;;;;38.60;24.40;;;;;;;7.09;85.19;99215.84;86822;1281;23656;-74
2022/10/26 05:20:44;;;;;;;40.90;24.70;;;;;;;7.05;85.13;99211.26;86834;1295;22618;-76
2022/10/26 05:22:51;;;;;;;37.70;25.40;;;;;;;7.05;85.48;99211.77;86791;1290;22558;-75
2022/10/26 05:24:53;;;;;;;39.10;24.30;;;;;;;7.05;85.60;99217.20;86835;1294;22446;-76
2022/10/26 05:26:55;;;;;;;32.40;24.80;;;;;;;7.06;85.30;99220.32;86944;1291;22892;-75
2022/10/26 05:28:56;;;;;;;37.80;24.40;;;;;;;7.07;85.32;99222.23;86907;1287;22515;-77
2022/10/26 05:30:58;;;;;;;45.90;26.20;;;;;;;7.05;85.46;99224.70;86697;1281;22656;-76
2022/10/26 05:33:04;;;;;;;40.80;27.00;;;;;;;7.05;85.57;99227.86;86761;1286;22653;-76
2022/10/26 05:35:06;;;;;;;48.30;28.20;;;;;;;7.06;85.40;99233.43;86571;1291;23531;-76
2022/10/26 05:37:08;;;;;;;46.10;29.70;;;;;;;7.06;85.54;99233.95;86736;1294;25879;-75
2022/10/26 05:39:09;;;;;;;42.50;28.80;;;;;;;7.04;85.41;99235.91;87042;1284;25428;-75
2022/10/26 05:41:12;;;;;;;44.10;28.30;;;;;;;7.03;85.59;99236.83;86788;1285;22421;-76
2022/10/26 05:43:13;;;;;;;51.80;31.30;;;;;;;7.06;85.51;99239.70;86775;1292;25280;-77
2022/10/26 05:45:23;;;;;;;48.10;29.30;;;;;;;7.06;85.46;99239.71;86852;1309;22925;-75
2022/10/26 05:47:24;;;;;;;49.00;28.40;;;;;;;7.09;85.45;99245.56;86550;1288;22712;-71
2022/10/26 05:49:26;;;;;;;48.90;28.20;;;;;;;7.09;85.82;99246.44;86508;1285;26568;-73
2022/10/26 05:51:27;;;;;;;42.10;27.90;;;;;;;7.08;85.65;99245.23;86626;1295;22769;-72
2022/10/26 05:53:29;;;;;;;37.30;25.70;;;;;;;7.09;85.81;99247.48;86701;1295;22568;-72
2022/10/26 05:55:31;;;;;;;40.40;28.30;;;;;;;7.08;85.49;99248.21;86711;1288;22612;-74
2022/10/26 05:57:33;;;;;;;43.90;29.20;;;;;;;7.08;85.43;99252.40;86976;1287;22572;-73
2022/10/26 05:59:35;;;;;;;43.60;27.70;;;;;;;7.06;85.65;99247.58;86659;1294;22490;-74
2022/10/26 06:01:49;;;;;;;53.40;30.00;;;;;;;7.06;85.81;99248.27;86644;1311;22467;-73
2022/10/26 06:04:20;;;;;;;59.00;32.20;;;;;;;7.07;85.50;99248.76;86777;1295;25410;-75
2022/10/26 06:06:22;;;;;;;47.60;32.50;;;;;;;7.11;85.83;99252.48;86830;1285;25905;-74
2022/10/26 06:08:28;;;;;;;61.20;32.30;;;;;;;7.14;85.74;99256.93;86998;1288;22630;-75
2022/10/26 06:10:30;;;;;;;52.20;34.80;;;;;;;7.17;85.57;99256.84;87148;1294;22573;-76
2022/10/26 06:12:32;;;;;;;58.00;38.20;;;;;;;7.20;85.95;99259.55;86914;1288;22538;-76
2022/10/26 06:14:35;;;;;;;63.00;38.50;;;;;;;7.26;86.01;99261.29;87371;1292;25385;-75
2022/10/26 06:17:00;;;;;;;58.10;38.00;;;;;;;7.32;85.70;99260.77;87414;1303;22468;-77
2022/10/26 06:19:20;;;;;;;62.30;36.30;;;;;;;7.39;86.11;99263.38;87190;1278;22648;-75
2022/10/26 06:22:08;;;;;;;55.40;34.90;;;;;;;7.45;86.08;99262.84;87268;1287;22489;-76
2022/10/26 06:24:17;;;;;;;55.40;35.70;;;;;;;7.50;86.09;99264.23;87209;1286;22641;-75
2022/10/26 06:26:50;;;;;;;67.10;35.30;;;;;;;7.54;85.94;99262.89;87217;1289;25156;-76
2022/10/26 06:29:17;;;;;;;74.10;37.90;;;;;;;7.60;85.98;99266.02;87124;1295;22539;-75
2022/10/26 06:31:19;;;;;;;56.30;35.50;;;;;;;7.67;86.08;99266.69;87200;1295;22461;-77
2022/10/26 06:33:20;;;;;;;56.40;36.70;;;;;;;7.72;86.33;99267.05;87066;1284;22529;-76
2022/10/26 06:35:25;;;;;;;54.30;35.40;;;;;;;7.78;86.35;99270.89;87054;1281;24318;-75
2022/10/26 06:37:29;;;;;;;65.20;37.90;;;;;;;7.82;86.33;99271.63;87107;1310;27033;-76
2022/10/26 06:39:41;;;;;;;45.80;32.60;;;;;;;7.86;86.22;99275.52;87043;1296;22818;-75
2022/10/26 06:41:43;;;;;;;58.60;36.90;;;;;;;7.90;85.97;99275.41;87089;1306;22529;-75
2022/10/26 06:43:47;;;;;;;60.50;35.00;;;;;;;7.93;86.19;99279.52;87061;1299;22485;-74
2022/10/26 06:46:27;;;;;;;83.50;35.60;;;;;;;7.98;86.36;99278.47;87108;1301;22721;-76
2022/10/26 06:48:33;;;;;;;58.80;33.20;;;;;;;8.05;86.11;99279.65;87096;1293;22734;-75
2022/10/26 06:50:46;;;;;;;59.40;32.90;;;;;;;8.10;86.05;99284.20;87030;1288;24289;-75
2022/10/26 06:53:04;;;;;;;75.90;33.70;;;;;;;8.18;86.07;99286.40;87291;1282;22487;-76
2022/10/26 06:55:12;;;;;;;60.10;32.80;;;;;;;8.25;85.86;99287.73;87215;1295;22428;-76
2022/10/26 06:57:21;;;;;;;56.60;35.00;;;;;;;8.32;86.24;99295.04;87014;1312;22461;-74
2022/10/26 06:59:39;;;;;;;75.70;36.00;;;;;;;8.38;86.16;99295.17;87082;1287;22535;-76
2022/10/26 07:01:43;;;;;;;69.10;34.40;;;;;;;8.46;86.13;99297.73;87159;1310;22792;-74
2022/10/26 07:03:45;;;;;;;78.70;36.40;;;;;;;8.53;86.21;99301.70;86901;1287;23003;-75
2022/10/26 07:05:47;;;;;;;58.60;33.70;;;;;;;8.59;86.10;99295.70;86618;1288;22593;-75
2022/10/26 07:07:48;;;;;;;70.80;35.50;;;;;;;8.71;86.29;99301.27;86701;1278;23946;-74
2022/10/26 07:09:52;;;;;;;64.20;34.50;;;;;;;8.80;86.34;99304.10;86501;1295;22479;-74
2022/10/26 07:11:53;;;;;;;58.00;35.20;;;;;;;8.88;86.17;99303.09;86791;1285;22619;-76
2022/10/26 07:13:56;;;;;;;56.70;35.00;;;;;;;8.97;86.17;99299.80;86477;1294;22607;-74
2022/10/26 07:15:57;;;;;;;60.90;34.40;;;;;;;9.06;86.44;99302.10;86446;1294;26507;-76
2022/10/26 07:17:59;;;;;;;62.50;35.40;;;;;;;9.14;86.52;99302.52;86512;1290;22479;-76
2022/10/26 07:20:01;;;;;;;75.50;35.80;;;;;;;9.23;86.48;99302.17;86564;1295;22884;-75
2022/10/26 07:22:03;;;;;;;72.50;32.90;;;;;;;9.33;86.60;99304.27;86686;1278;23412;-77
2022/10/26 07:24:05;;;;;;;76.70;34.30;;;;;;;9.42;86.34;99306.19;86536;1293;22557;-75
2022/10/26 07:26:06;;;;;;;70.10;33.70;;;;;;;9.51;86.23;99303.57;86632;1278;22513;-77
2022/10/26 07:28:09;;;;;;;61.10;32.70;;;;;;;9.60;86.53;99303.76;86624;1286;22511;-75
2022/10/26 07:30:12;;;;;;;54.90;32.10;;;;;;;9.71;86.49;99302.29;86744;1285;24199;-76
2022/10/26 07:32:13;;;;;;;55.90;32.00;;;;;;;9.80;86.56;99306.48;86581;1310;22522;-78
2022/10/26 07:34:15;;;;;;;77.30;33.40;;;;;;;9.91;86.41;99309.39;86606;1287;27760;-77
2022/10/26 07:36:17;;;;;;;66.30;30.80;;;;;;;10.03;86.45;99310.51;86548;1278;22490;-75
2022/10/26 07:38:19;;;;;;;53.30;27.60;;;;;;;10.14;86.61;99306.52;86564;1303;22674;-75
2022/10/26 07:40:20;;;;;;;52.70;30.20;;;;;;;10.27;86.41;99306.34;86388;1288;22524;-75
2022/10/26 07:42:22;;;;;;;66.60;29.70;;;;;;;10.42;86.49;99309.98;86263;1288;263858;-74
2022/10/26 07:44:24;;;;;;;50.40;28.80;;;;;;;10.56;86.44;99314.80;86686;1292;22514;-77
2022/10/26 07:46:26;;;;;;;48.00;28.20;;;;;;;10.69;86.34;99313.20;86996;1286;22523;-76
2022/10/26 07:48:27;;;;;;;51.20;28.90;;;;;;;10.81;86.32;99313.05;86944;1290;22473;-75
2022/10/26 07:50:31;;;;;;;45.00;27.50;;;;;;;10.93;86.21;99315.16;86766;1288;22991;-75
2022/10/26 07:52:34;;;;;;;51.10;27.40;;;;;;;11.06;86.16;99314.39;86868;1288;22487;-75
2022/10/26 07:54:37;;;;;;;37.70;25.50;;;;;;;11.21;86.14;99313.39;86766;1294;22466;-75
2022/10/26 07:56:40;;;;;;;50.60;24.20;;;;;;;11.38;86.18;99314.70;87012;1292;22553;-75
2022/10/26 07:58:42;;;;;;;45.70;24.70;;;;;;;11.54;86.03;99315.92;86688;1297;22501;-75
2022/10/26 08:00:43;;;;;;;53.40;23.60;;;;;;;11.66;85.90;99310.98;86815;1288;23416;-76
2022/10/26 08:02:45;;;;;;;55.10;25.50;;;;;;;11.76;85.81;99308.73;86674;1295;22519;-75
2022/10/26 08:04:49;;;;;;;43.70;23.50;;;;;;;11.91;86.00;99307.66;86894;1292;25439;-75
2022/10/26 08:06:50;;;;;;;44.00;23.00;;;;;;;12.10;85.96;99305.05;86665;1295;22523;-77
2022/10/26 08:08:53;;;;;;;43.10;24.00;;;;;;;12.23;85.88;99304.20;86644;1288;22498;-76
2022/10/26 08:10:55;;;;;;;33.00;21.10;;;;;;;12.35;85.62;99309.42;86667;1289;25580;-76
2022/10/26 08:12:56;;;;;;;48.80;21.20;;;;;;;12.45;85.65;99303.62;86697;1288;25948;-76
2022/10/26 08:14:58;;;;;;;56.00;22.00;;;;;;;12.57;85.60;99302.52;86985;1281;24244;-75
2022/10/26 08:17:00;;;;;;;40.90;20.90;;;;;;;12.70;85.53;99304.30;86754;1281;24176;-75
2022/10/26 08:19:01;;;;;;;37.90;19.00;;;;;;;12.87;85.58;99305.36;86916;1288;22515;-75
2022/10/26 08:21:10;;;;;;;36.10;19.70;;;;;;;12.95;85.23;99309.71;86981;1297;22492;-76
2022/10/26 08:23:12;;;;;;;36.40;19.20;;;;;;;12.97;84.98;99307.67;87046;1310;22470;-78
2022/10/26 08:25:14;;;;;;;35.30;19.40;;;;;;;13.00;85.24;99306.11;86995;1294;23026;-76
2022/10/26 08:27:16;;;;;;;27.80;14.90;;;;;;;13.08;85.15;99304.45;86895;1287;23871;-78
2022/10/26 08:29:18;;;;;;;26.40;13.80;;;;;;;13.14;84.96;99306.98;86811;1295;24432;-76
2022/10/26 08:31:19;;;;;;;26.40;11.80;;;;;;;13.19;85.11;99300.88;86834;1278;22517;-74
2022/10/26 08:33:22;;;;;;;23.00;11.20;;;;;;;13.30;84.94;99300.09;86886;1278;23149;-74
2022/10/26 08:35:23;;;;;;;28.40;10.70;;;;;;;13.39;84.73;99300.33;86720;1288;22518;-73
2022/10/26 08:37:26;;;;;;;23.60;10.90;;;;;;;13.51;84.97;99296.19;86710;1281;24337;-73
2022/10/26 08:39:29;;;;;;;18.30;10.00;;;;;;;13.58;84.74;99284.83;86624;1281;22585;-74
2022/10/26 08:41:35;;;;;;;27.00;10.80;;;;;;;13.71;84.50;99286.94;86732;1295;22832;-73
2022/10/26 08:43:44;;;;;;;20.70;10.00;;;;;;;13.81;84.56;99292.89;86747;1281;22753;-71
2022/10/26 08:45:59;;;;;;;16.00;9.20;;;;;;;13.94;84.68;99295.50;86630;1281;24240;-73
2022/10/26 08:48:06;;;;;;;19.30;9.70;;;;;;;14.05;84.47;99294.02;86695;1285;22964;-74
2022/10/26 08:50:26;;;;;;;18.40;8.70;;;;;;;14.10;84.07;99294.76;86797;1279;22504;-73
2022/10/26 08:52:40;;;;;;;16.50;9.20;;;;;;;14.14;84.00;99293.85;86644;1295;22616;-73
2022/10/26 08:54:51;;;;;;;15.80;8.50;;;;;;;14.17;83.91;99292.79;86595;1286;22515;-72
2022/10/26 08:56:58;;;;;;;14.00;7.50;;;;;;;14.19;83.70;99294.61;86617;1281;24362;-72
2022/10/26 08:59:24;;;;;;;14.10;8.40;;;;;;;14.21;83.74;99295.38;86914;1284;25278;-71
2022/10/26 09:01:25;;;;;;;15.40;8.60;;;;;;;14.22;83.64;99297.11;86725;1285;25386;-73
2022/10/26 09:03:27;;;;;;;13.00;8.00;;;;;;;14.27;83.62;99295.79;86613;1281;24257;-73
2022/10/26 09:05:40;;;;;;;18.60;8.80;;;;;;;14.32;83.63;99293.67;86475;1281;24255;-72
2022/10/26 09:07:41;;;;;;;14.70;7.80;;;;;;;14.35;83.55;99291.24;86616;1278;22571;-73
2022/10/26 09:09:52;;;;;;;21.60;7.90;;;;;;;14.38;83.61;99290.36;86673;1284;22899;-72
2022/10/26 09:12:16;;;;;;;11.10;7.90;;;;;;;14.53;83.84;99290.38;86688;1284;23956;-71
2022/10/26 09:14:29;;;;;;;11.90;7.60;;;;;;;14.67;83.84;99288.13;86700;1285;22902;-71
2022/10/26 09:17:15;;;;;;;16.40;7.90;;;;;;;14.79;83.66;99289.55;86606;1288;22533;-71
2022/10/26 09:19:25;;;;;;;16.30;7.40;;;;;;;14.89;83.58;99288.56;86273;1297;22666;-73
2022/10/26 09:21:38;;;;;;;13.30;7.00;;;;;;;14.95;83.30;99287.89;86347;1284;22589;-72
2022/10/26 09:23:52;;;;;;;19.10;6.90;;;;;;;15.02;83.36;99289.02;86123;1293;26913;-70
2022/10/26 09:26:01;;;;;;;12.20;6.60;;;;;;;15.14;83.24;99290.39;86264;1291;22670;-72
2022/10/26 09:28:04;;;;;;;12.10;6.30;;;;;;;15.25;83.22;99290.61;86172;1292;22538;-72
2022/10/26 09:30:14;;;;;;;14.30;5.20;;;;;;;15.28;82.80;99293.44;86231;1287;22538;-70
2022/10/26 09:32:38;;;;;;;9.00;4.90;;;;;;;15.32;82.94;99289.96;86292;1291;22580;-70
2022/10/26 09:34:52;;;;;;;7.30;4.40;;;;;;;15.44;82.85;99294.02;85944;1290;22573;-72
2022/10/26 09:36:57;;;;;;;10.00;4.90;;;;;;;15.52;82.79;99294.79;85998;1293;22587;-72
2022/10/26 09:39:09;;;;;;;11.90;5.00;;;;;;;15.66;82.75;99296.00;86000;1290;22644;-72
2022/10/26 09:41:38;;;;;;;13.80;5.20;;;;;;;15.79;82.64;99294.47;86029;1287;25403;-71
2022/10/26 09:43:53;;;;;;;8.00;4.80;;;;;;;16.00;82.57;99300.40;86060;1291;22549;-70
2022/10/26 09:45:54;;;;;;;10.30;5.40;;;;;;;16.20;82.40;99299.96;85628;1287;22565;-73